sensor_id;sensor_type;location;lat;lon;timestamp;temperature;humidity
6841;DHT22;3458;53.678;14.080;2024-02-28T00:02:10;5.10;99.90
6841;DHT22;3458;53.678;14.080;2024-02-28T00:04:36;5.00;99.90
6841;DHT22;3458;53.678;14.080;2024-02-28T00:07:01;5.10;99.90
6841;DHT22;3458;53.678;14.080;2024-02-28T00:09:27;5.00;99.90
6841;DHT22;3458;53.678;14.080;2024-02-28T00:11:52;5.00;99.90
6841;DHT22;3458;53.678;14.080;2024-02-28T00:14:18;5.00;99.90
6841;DHT22;3458;53.678;14.080;2024-02-28T00:16:44;5.00;99.90
6841;DHT22;3458;53.678;14.080;2024-02-28T00:19:11;5.10;99.90
6841;DHT22;3458;53.678;14.080;2024-02-28T00:21:38;5.10;99.90
6841;DHT22;3458;53.678;14.080;2024-02-28T00:24:03;5.10;99.90
6841;DHT22;3458;53.678;14.080;2024-02-28T00:26:29;5.10;99.90
6841;DHT22;3458;53.678;14.080;2024-02-28T00:28:54;5.20;99.90
6841;DHT22;3458;53.678;14.080;2024-02-28T00:31:20;5.20;99.90
6841;DHT22;3458;53.678;14.080;2024-02-28T00:33:47;5.20;99.90
6841;DHT22;3458;53.678;14.080;2024-02-28T00:36:12;5.10;99.90
6841;DHT22;3458;53.678;14.080;2024-02-28T00:38:38;5.20;99.90
6841;DHT22;3458;53.678;14.080;2024-02-28T00:41:03;5.10;99.90
6841;DHT22;3458;53.678;14.080;2024-02-28T00:43:29;5.10;99.90
6841;DHT22;3458;53.678;14.080;2024-02-28T00:45:54;5.10;99.90
6841;DHT22;3458;53.678;14.080;2024-02-28T00:48:21;5.10;99.90
6841;DHT22;3458;53.678;14.080;2024-02-28T00:50:47;5.10;99.90
6841;DHT22;3458;53.678;14.080;2024-02-28T00:53:12;5.10;99.90
6841;DHT22;3458;53.678;14.080;2024-02-28T00:55:38;5.10;99.90
6841;DHT22;3458;53.678;14.080;2024-02-28T00:58:03;5.10;99.90
6841;DHT22;3458;53.678;14.080;2024-02-28T01:00:29;5.10;99.90
6841;DHT22;3458;53.678;14.080;2024-02-28T01:02:54;5.10;99.90
6841;DHT22;3458;53.678;14.080;2024-02-28T01:05:20;5.10;99.90
6841;DHT22;3458;53.678;14.080;2024-02-28T01:07:45;5.10;99.90
6841;DHT22;3458;53.678;14.080;2024-02-28T01:10:11;5.10;99.90
6841;DHT22;3458;53.678;14.080;2024-02-28T01:12:36;5.10;99.90
6841;DHT22;3458;53.678;14.080;2024-02-28T01:15:02;5.10;99.90
6841;DHT22;3458;53.678;14.080;2024-02-28T01:17:28;5.10;99.90
6841;DHT22;3458;53.678;14.080;2024-02-28T01:19:54;5.10;99.90
6841;DHT22;3458;53.678;14.080;2024-02-28T01:22:19;5.10;99.90
6841;DHT22;3458;53.678;14.080;2024-02-28T01:24:45;5.10;99.90
6841;DHT22;3458;53.678;14.080;2024-02-28T01:27:10;5.10;99.90
6841;DHT22;3458;53.678;14.080;2024-02-28T01:29:36;5.10;99.90
6841;DHT22;3458;53.678;14.080;2024-02-28T01:32:01;5.20;99.90
6841;DHT22;3458;53.678;14.080;2024-02-28T01:34:28;5.10;99.90
6841;DHT22;3458;53.678;14.080;2024-02-28T01:36:53;5.00;99.90
6841;DHT22;3458;53.678;14.080;2024-02-28T01:39:19;5.00;99.90
6841;DHT22;3458;53.678;14.080;2024-02-28T01:41:54;5.00;99.90
6841;DHT22;3458;53.678;14.080;2024-02-28T01:44:20;5.00;99.90
6841;DHT22;3458;53.678;14.080;2024-02-28T01:46:46;5.00;99.90
6841;DHT22;3458;53.678;14.080;2024-02-28T01:49:11;4.90;99.90
6841;DHT22;3458;53.678;14.080;2024-02-28T01:51:37;4.90;99.90
6841;DHT22;3458;53.678;14.080;2024-02-28T01:54:03;4.90;99.90
6841;DHT22;3458;53.678;14.080;2024-02-28T01:56:29;4.90;99.90
6841;DHT22;3458;53.678;14.080;2024-02-28T01:58:56;4.80;99.90
6841;DHT22;3458;53.678;14.080;2024-02-28T02:01:22;4.80;99.90
6841;DHT22;3458;53.678;14.080;2024-02-28T02:03:47;4.80;99.90
6841;DHT22;3458;53.678;14.080;2024-02-28T02:06:13;4.80;99.90
6841;DHT22;3458;53.678;14.080;2024-02-28T02:08:39;4.90;99.90
6841;DHT22;3458;53.678;14.080;2024-02-28T02:11:05;4.90;99.90
6841;DHT22;3458;53.678;14.080;2024-02-28T02:13:31;5.00;99.90
6841;DHT22;3458;53.678;14.080;2024-02-28T02:15:57;5.00;99.90
6841;DHT22;3458;53.678;14.080;2024-02-28T02:18:22;5.00;99.90
6841;DHT22;3458;53.678;14.080;2024-02-28T02:20:54;5.00;99.90
6841;DHT22;3458;53.678;14.080;2024-02-28T02:23:20;4.90;99.90
6841;DHT22;3458;53.678;14.080;2024-02-28T02:25:46;4.90;99.90
6841;DHT22;3458;53.678;14.080;2024-02-28T02:28:12;4.90;99.90
6841;DHT22;3458;53.678;14.080;2024-02-28T02:30:38;5.00;99.90
6841;DHT22;3458;53.678;14.080;2024-02-28T02:33:05;4.90;99.90
6841;DHT22;3458;53.678;14.080;2024-02-28T02:35:30;4.80;99.90
6841;DHT22;3458;53.678;14.080;2024-02-28T02:37:56;4.80;99.90
6841;DHT22;3458;53.678;14.080;2024-02-28T02:40:21;4.80;99.90
6841;DHT22;3458;53.678;14.080;2024-02-28T02:42:47;4.80;99.90
6841;DHT22;3458;53.678;14.080;2024-02-28T02:45:12;4.80;99.90
6841;DHT22;3458;53.678;14.080;2024-02-28T02:47:38;4.80;99.90
6841;DHT22;3458;53.678;14.080;2024-02-28T02:50:03;4.80;99.90
6841;DHT22;3458;53.678;14.080;2024-02-28T02:52:29;4.70;99.90
6841;DHT22;3458;53.678;14.080;2024-02-28T02:54:54;4.70;99.90
6841;DHT22;3458;53.678;14.080;2024-02-28T02:57:20;4.70;99.90
6841;DHT22;3458;53.678;14.080;2024-02-28T02:59:46;4.70;99.90
6841;DHT22;3458;53.678;14.080;2024-02-28T03:02:11;4.80;99.90
6841;DHT22;3458;53.678;14.080;2024-02-28T03:04:37;4.80;99.90
6841;DHT22;3458;53.678;14.080;2024-02-28T03:07:02;4.80;99.90
6841;DHT22;3458;53.678;14.080;2024-02-28T03:09:28;4.80;99.90
6841;DHT22;3458;53.678;14.080;2024-02-28T03:11:53;4.80;99.90
6841;DHT22;3458;53.678;14.080;2024-02-28T03:14:19;4.80;99.90
6841;DHT22;3458;53.678;14.080;2024-02-28T03:16:47;4.80;99.90
6841;DHT22;3458;53.678;14.080;2024-02-28T03:19:14;4.80;99.90
6841;DHT22;3458;53.678;14.080;2024-02-28T03:21:40;4.80;99.90
6841;DHT22;3458;53.678;14.080;2024-02-28T03:24:06;4.80;99.90
6841;DHT22;3458;53.678;14.080;2024-02-28T03:26:32;4.80;99.90
6841;DHT22;3458;53.678;14.080;2024-02-28T03:28:58;4.80;99.90
6841;DHT22;3458;53.678;14.080;2024-02-28T03:31:23;4.80;99.90
6841;DHT22;3458;53.678;14.080;2024-02-28T03:33:49;4.80;99.90
6841;DHT22;3458;53.678;14.080;2024-02-28T03:36:14;4.80;99.90
6841;DHT22;3458;53.678;14.080;2024-02-28T03:38:39;4.70;99.90
6841;DHT22;3458;53.678;14.080;2024-02-28T03:41:05;4.70;99.90
6841;DHT22;3458;53.678;14.080;2024-02-28T03:43:30;4.60;99.90
6841;DHT22;3458;53.678;14.080;2024-02-28T03:45:56;4.60;99.90
6841;DHT22;3458;53.678;14.080;2024-02-28T03:48:22;4.60;99.90
6841;DHT22;3458;53.678;14.080;2024-02-28T03:50:47;4.70;99.90
6841;DHT22;3458;53.678;14.080;2024-02-28T03:53:13;4.70;99.90
6841;DHT22;3458;53.678;14.080;2024-02-28T03:55:38;4.60;99.90
6841;DHT22;3458;53.678;14.080;2024-02-28T03:58:04;4.60;99.90
6841;DHT22;3458;53.678;14.080;2024-02-28T04:00:32;4.60;99.90
6841;DHT22;3458;53.678;14.080;2024-02-28T04:02:57;4.60;99.90
6841;DHT22;3458;53.678;14.080;2024-02-28T04:05:23;4.60;99.90
6841;DHT22;3458;53.678;14.080;2024-02-28T04:07:48;4.60;99.90
6841;DHT22;3458;53.678;14.080;2024-02-28T04:10:14;4.60;99.90
6841;DHT22;3458;53.678;14.080;2024-02-28T04:12:42;4.60;99.90
6841;DHT22;3458;53.678;14.080;2024-02-28T04:15:08;4.60;99.90
6841;DHT22;3458;53.678;14.080;2024-02-28T04:17:35;4.60;99.90
6841;DHT22;3458;53.678;14.080;2024-02-28T04:20:01;4.70;99.90
6841;DHT22;3458;53.678;14.080;2024-02-28T04:22:30;4.80;99.90
6841;DHT22;3458;53.678;14.080;2024-02-28T04:24:56;4.70;99.90
6841;DHT22;3458;53.678;14.080;2024-02-28T04:27:22;4.70;99.90
6841;DHT22;3458;53.678;14.080;2024-02-28T04:29:47;4.70;99.90
6841;DHT22;3458;53.678;14.080;2024-02-28T04:32:13;4.80;99.90
6841;DHT22;3458;53.678;14.080;2024-02-28T04:34:38;4.70;99.90
6841;DHT22;3458;53.678;14.080;2024-02-28T04:37:04;4.70;99.90
6841;DHT22;3458;53.678;14.080;2024-02-28T04:39:29;4.70;99.90
6841;DHT22;3458;53.678;14.080;2024-02-28T04:41:55;4.70;99.90
6841;DHT22;3458;53.678;14.080;2024-02-28T04:44:20;4.70;99.90
6841;DHT22;3458;53.678;14.080;2024-02-28T04:46:46;4.70;99.90
6841;DHT22;3458;53.678;14.080;2024-02-28T04:49:11;4.70;99.90
6841;DHT22;3458;53.678;14.080;2024-02-28T04:51:37;4.70;99.90
6841;DHT22;3458;53.678;14.080;2024-02-28T04:54:02;4.70;99.90
6841;DHT22;3458;53.678;14.080;2024-02-28T04:56:28;4.70;99.90
6841;DHT22;3458;53.678;14.080;2024-02-28T04:58:53;4.80;99.90
6841;DHT22;3458;53.678;14.080;2024-02-28T05:01:19;4.70;99.90
6841;DHT22;3458;53.678;14.080;2024-02-28T05:03:44;4.80;99.90
6841;DHT22;3458;53.678;14.080;2024-02-28T05:06:10;4.70;99.90
6841;DHT22;3458;53.678;14.080;2024-02-28T05:08:37;4.80;99.90
6841;DHT22;3458;53.678;14.080;2024-02-28T05:11:03;4.70;99.90
6841;DHT22;3458;53.678;14.080;2024-02-28T05:13:31;4.80;99.90
6841;DHT22;3458;53.678;14.080;2024-02-28T05:15:57;4.70;99.90
6841;DHT22;3458;53.678;14.080;2024-02-28T05:18:22;4.80;99.90
6841;DHT22;3458;53.678;14.080;2024-02-28T05:20:48;4.80;99.90
6841;DHT22;3458;53.678;14.080;2024-02-28T05:23:13;4.80;99.90
6841;DHT22;3458;53.678;14.080;2024-02-28T05:25:39;4.70;99.90
6841;DHT22;3458;53.678;14.080;2024-02-28T05:28:04;4.70;99.90
6841;DHT22;3458;53.678;14.080;2024-02-28T05:30:30;4.70;99.90
6841;DHT22;3458;53.678;14.080;2024-02-28T05:32:56;4.70;99.90
6841;DHT22;3458;53.678;14.080;2024-02-28T05:35:21;4.60;99.90
6841;DHT22;3458;53.678;14.080;2024-02-28T05:37:47;4.60;99.90
6841;DHT22;3458;53.678;14.080;2024-02-28T05:40:12;4.60;99.90
6841;DHT22;3458;53.678;14.080;2024-02-28T05:42:38;4.60;99.90
6841;DHT22;3458;53.678;14.080;2024-02-28T05:45:05;4.60;99.90
6841;DHT22;3458;53.678;14.080;2024-02-28T05:47:31;4.50;99.90
6841;DHT22;3458;53.678;14.080;2024-02-28T05:49:56;4.50;99.90
6841;DHT22;3458;53.678;14.080;2024-02-28T05:52:23;4.60;99.90
6841;DHT22;3458;53.678;14.080;2024-02-28T05:54:50;4.60;99.90
6841;DHT22;3458;53.678;14.080;2024-02-28T05:57:16;4.60;99.90
6841;DHT22;3458;53.678;14.080;2024-02-28T05:59:42;4.70;99.90
6841;DHT22;3458;53.678;14.080;2024-02-28T06:02:07;4.70;99.90
6841;DHT22;3458;53.678;14.080;2024-02-28T06:04:33;4.60;99.90
6841;DHT22;3458;53.678;14.080;2024-02-28T06:06:58;4.50;99.90
6841;DHT22;3458;53.678;14.080;2024-02-28T06:09:25;4.40;99.90
6841;DHT22;3458;53.678;14.080;2024-02-28T06:11:52;4.50;99.90
6841;DHT22;3458;53.678;14.080;2024-02-28T06:14:18;4.60;99.90
6841;DHT22;3458;53.678;14.080;2024-02-28T06:16:46;4.60;99.90
6841;DHT22;3458;53.678;14.080;2024-02-28T06:19:12;4.60;99.90
6841;DHT22;3458;53.678;14.080;2024-02-28T06:21:37;4.60;99.90
6841;DHT22;3458;53.678;14.080;2024-02-28T06:24:03;4.50;99.90
6841;DHT22;3458;53.678;14.080;2024-02-28T06:26:29;4.40;99.90
6841;DHT22;3458;53.678;14.080;2024-02-28T06:28:56;4.50;99.90
6841;DHT22;3458;53.678;14.080;2024-02-28T06:31:26;4.60;99.90
6841;DHT22;3458;53.678;14.080;2024-02-28T06:33:52;4.50;99.90
6841;DHT22;3458;53.678;14.080;2024-02-28T06:36:17;4.60;99.90
6841;DHT22;3458;53.678;14.080;2024-02-28T06:38:43;4.60;99.90
6841;DHT22;3458;53.678;14.080;2024-02-28T06:41:08;4.60;99.90
6841;DHT22;3458;53.678;14.080;2024-02-28T06:43:34;4.60;99.90
6841;DHT22;3458;53.678;14.080;2024-02-28T06:46:01;4.60;99.90
6841;DHT22;3458;53.678;14.080;2024-02-28T06:48:27;4.60;99.90
6841;DHT22;3458;53.678;14.080;2024-02-28T06:50:53;4.60;99.90
6841;DHT22;3458;53.678;14.080;2024-02-28T06:53:18;4.50;99.90
6841;DHT22;3458;53.678;14.080;2024-02-28T06:55:44;4.50;99.90
6841;DHT22;3458;53.678;14.080;2024-02-28T06:58:11;4.40;99.90
6841;DHT22;3458;53.678;14.080;2024-02-28T07:00:36;4.40;99.90
6841;DHT22;3458;53.678;14.080;2024-02-28T07:03:02;4.30;99.90
6841;DHT22;3458;53.678;14.080;2024-02-28T07:05:27;4.40;99.90
6841;DHT22;3458;53.678;14.080;2024-02-28T07:07:53;4.40;99.90
6841;DHT22;3458;53.678;14.080;2024-02-28T07:10:19;4.50;99.90
6841;DHT22;3458;53.678;14.080;2024-02-28T07:12:44;4.50;99.90
6841;DHT22;3458;53.678;14.080;2024-02-28T07:15:10;4.50;99.90
6841;DHT22;3458;53.678;14.080;2024-02-28T07:17:35;4.50;99.90
6841;DHT22;3458;53.678;14.080;2024-02-28T07:20:01;4.60;99.90
6841;DHT22;3458;53.678;14.080;2024-02-28T07:22:26;4.60;99.90
6841;DHT22;3458;53.678;14.080;2024-02-28T07:24:52;4.60;99.90
6841;DHT22;3458;53.678;14.080;2024-02-28T07:27:17;4.60;99.90
6841;DHT22;3458;53.678;14.080;2024-02-28T07:29:43;4.60;99.90
6841;DHT22;3458;53.678;14.080;2024-02-28T07:32:09;4.60;99.90
6841;DHT22;3458;53.678;14.080;2024-02-28T07:34:34;4.60;99.90
6841;DHT22;3458;53.678;14.080;2024-02-28T07:37:00;4.70;99.90
6841;DHT22;3458;53.678;14.080;2024-02-28T07:39:26;4.70;99.90
6841;DHT22;3458;53.678;14.080;2024-02-28T07:41:52;4.70;99.90
6841;DHT22;3458;53.678;14.080;2024-02-28T07:44:18;4.70;99.90
6841;DHT22;3458;53.678;14.080;2024-02-28T07:46:43;4.70;99.90
6841;DHT22;3458;53.678;14.080;2024-02-28T07:49:09;4.70;99.90
6841;DHT22;3458;53.678;14.080;2024-02-28T07:51:36;4.60;99.90
6841;DHT22;3458;53.678;14.080;2024-02-28T07:54:02;4.70;99.90
6841;DHT22;3458;53.678;14.080;2024-02-28T07:56:29;4.70;99.90
6841;DHT22;3458;53.678;14.080;2024-02-28T07:58:54;4.80;99.90
6841;DHT22;3458;53.678;14.080;2024-02-28T08:01:20;4.70;99.90
6841;DHT22;3458;53.678;14.080;2024-02-28T08:03:47;4.80;99.90
6841;DHT22;3458;53.678;14.080;2024-02-28T08:06:13;4.80;99.90
6841;DHT22;3458;53.678;14.080;2024-02-28T08:08:38;4.80;99.90
6841;DHT22;3458;53.678;14.080;2024-02-28T08:11:03;4.80;99.90
6841;DHT22;3458;53.678;14.080;2024-02-28T08:13:29;4.90;99.90
6841;DHT22;3458;53.678;14.080;2024-02-28T08:15:55;4.90;99.90
6841;DHT22;3458;53.678;14.080;2024-02-28T08:18:21;4.80;99.90
6841;DHT22;3458;53.678;14.080;2024-02-28T08:20:46;4.80;99.90
6841;DHT22;3458;53.678;14.080;2024-02-28T08:23:12;4.80;99.90
6841;DHT22;3458;53.678;14.080;2024-02-28T08:25:37;4.80;99.90
6841;DHT22;3458;53.678;14.080;2024-02-28T08:28:03;4.70;99.90
6841;DHT22;3458;53.678;14.080;2024-02-28T08:30:29;4.70;99.90
6841;DHT22;3458;53.678;14.080;2024-02-28T08:32:54;4.70;99.90
6841;DHT22;3458;53.678;14.080;2024-02-28T08:35:20;4.70;99.90
6841;DHT22;3458;53.678;14.080;2024-02-28T08:37:45;4.70;99.90
6841;DHT22;3458;53.678;14.080;2024-02-28T08:40:11;4.70;99.90
6841;DHT22;3458;53.678;14.080;2024-02-28T08:42:37;4.70;99.90
6841;DHT22;3458;53.678;14.080;2024-02-28T08:45:04;4.70;99.90
6841;DHT22;3458;53.678;14.080;2024-02-28T08:47:31;4.80;99.90
6841;DHT22;3458;53.678;14.080;2024-02-28T08:49:57;4.80;99.90
6841;DHT22;3458;53.678;14.080;2024-02-28T08:52:22;4.80;99.90
6841;DHT22;3458;53.678;14.080;2024-02-28T08:54:48;4.80;99.90
6841;DHT22;3458;53.678;14.080;2024-02-28T08:57:14;4.80;99.90
6841;DHT22;3458;53.678;14.080;2024-02-28T08:59:40;5.00;99.90
6841;DHT22;3458;53.678;14.080;2024-02-28T09:02:06;5.00;99.90
6841;DHT22;3458;53.678;14.080;2024-02-28T09:04:32;4.90;99.90
6841;DHT22;3458;53.678;14.080;2024-02-28T09:06:57;5.00;99.90
6841;DHT22;3458;53.678;14.080;2024-02-28T09:09:23;4.90;99.90
6841;DHT22;3458;53.678;14.080;2024-02-28T09:11:48;4.90;99.90
6841;DHT22;3458;53.678;14.080;2024-02-28T09:14:14;4.80;99.90
6841;DHT22;3458;53.678;14.080;2024-02-28T09:16:39;4.70;99.90
6841;DHT22;3458;53.678;14.080;2024-02-28T09:19:05;4.70;99.90
6841;DHT22;3458;53.678;14.080;2024-02-28T09:21:31;4.60;99.90
6841;DHT22;3458;53.678;14.080;2024-02-28T09:23:56;4.60;99.90
6841;DHT22;3458;53.678;14.080;2024-02-28T09:26:22;4.70;99.90
6841;DHT22;3458;53.678;14.080;2024-02-28T09:28:47;4.70;99.90
6841;DHT22;3458;53.678;14.080;2024-02-28T09:31:13;4.70;99.90
6841;DHT22;3458;53.678;14.080;2024-02-28T09:33:41;4.50;99.90
6841;DHT22;3458;53.678;14.080;2024-02-28T09:36:06;4.50;99.90
6841;DHT22;3458;53.678;14.080;2024-02-28T09:38:32;4.50;99.90
6841;DHT22;3458;53.678;14.080;2024-02-28T09:41:00;4.40;99.90
6841;DHT22;3458;53.678;14.080;2024-02-28T09:43:29;4.40;99.90
6841;DHT22;3458;53.678;14.080;2024-02-28T09:46:01;4.50;99.90
6841;DHT22;3458;53.678;14.080;2024-02-28T09:48:29;4.50;99.90
6841;DHT22;3458;53.678;14.080;2024-02-28T09:50:56;4.50;99.90
6841;DHT22;3458;53.678;14.080;2024-02-28T09:53:22;4.50;99.90
6841;DHT22;3458;53.678;14.080;2024-02-28T09:55:49;4.60;99.90
6841;DHT22;3458;53.678;14.080;2024-02-28T09:58:15;4.60;99.90
6841;DHT22;3458;53.678;14.080;2024-02-28T10:00:41;4.50;99.90
6841;DHT22;3458;53.678;14.080;2024-02-28T10:03:10;4.60;99.90
6841;DHT22;3458;53.678;14.080;2024-02-28T10:05:37;4.60;99.90
6841;DHT22;3458;53.678;14.080;2024-02-28T10:08:05;4.60;99.90
6841;DHT22;3458;53.678;14.080;2024-02-28T10:10:30;4.60;99.90
6841;DHT22;3458;53.678;14.080;2024-02-28T10:12:56;4.60;99.90
6841;DHT22;3458;53.678;14.080;2024-02-28T10:15:22;4.60;99.90
6841;DHT22;3458;53.678;14.080;2024-02-28T10:17:47;4.70;99.90
6841;DHT22;3458;53.678;14.080;2024-02-28T10:20:14;4.70;99.90
6841;DHT22;3458;53.678;14.080;2024-02-28T10:22:39;4.70;99.90
6841;DHT22;3458;53.678;14.080;2024-02-28T10:25:05;4.70;99.90
6841;DHT22;3458;53.678;14.080;2024-02-28T10:27:35;4.60;99.90
6841;DHT22;3458;53.678;14.080;2024-02-28T10:30:01;4.50;99.90
6841;DHT22;3458;53.678;14.080;2024-02-28T10:32:32;4.40;99.90
6841;DHT22;3458;53.678;14.080;2024-02-28T10:35:01;4.30;99.90
6841;DHT22;3458;53.678;14.080;2024-02-28T10:37:29;4.40;99.90
6841;DHT22;3458;53.678;14.080;2024-02-28T10:39:57;4.60;99.90
6841;DHT22;3458;53.678;14.080;2024-02-28T10:42:23;4.60;99.90
6841;DHT22;3458;53.678;14.080;2024-02-28T10:44:52;4.60;99.90
6841;DHT22;3458;53.678;14.080;2024-02-28T10:47:29;4.60;99.90
6841;DHT22;3458;53.678;14.080;2024-02-28T10:49:55;4.60;99.90
6841;DHT22;3458;53.678;14.080;2024-02-28T10:52:21;4.50;99.90
6841;DHT22;3458;53.678;14.080;2024-02-28T10:54:53;4.50;99.90
6841;DHT22;3458;53.678;14.080;2024-02-28T10:57:20;4.50;99.90
6841;DHT22;3458;53.678;14.080;2024-02-28T10:59:47;4.60;99.90
6841;DHT22;3458;53.678;14.080;2024-02-28T11:02:13;4.50;99.90
6841;DHT22;3458;53.678;14.080;2024-02-28T11:04:39;4.50;99.90
6841;DHT22;3458;53.678;14.080;2024-02-28T11:07:05;4.50;99.90
6841;DHT22;3458;53.678;14.080;2024-02-28T11:09:31;4.50;99.90
6841;DHT22;3458;53.678;14.080;2024-02-28T11:11:57;4.40;99.90
6841;DHT22;3458;53.678;14.080;2024-02-28T11:14:23;4.40;99.90
6841;DHT22;3458;53.678;14.080;2024-02-28T11:17:04;4.50;99.90
6841;DHT22;3458;53.678;14.080;2024-02-28T11:19:31;4.60;99.90
6841;DHT22;3458;53.678;14.080;2024-02-28T11:21:59;4.60;99.90
6841;DHT22;3458;53.678;14.080;2024-02-28T11:24:28;4.60;99.90
6841;DHT22;3458;53.678;14.080;2024-02-28T11:26:54;4.60;99.90
6841;DHT22;3458;53.678;14.080;2024-02-28T11:29:24;4.50;99.90
6841;DHT22;3458;53.678;14.080;2024-02-28T11:31:50;4.50;99.90
6841;DHT22;3458;53.678;14.080;2024-02-28T11:34:16;4.50;99.90
6841;DHT22;3458;53.678;14.080;2024-02-28T11:36:42;4.40;99.90
6841;DHT22;3458;53.678;14.080;2024-02-28T11:39:07;4.50;99.90
6841;DHT22;3458;53.678;14.080;2024-02-28T11:41:33;4.50;99.90
6841;DHT22;3458;53.678;14.080;2024-02-28T11:43:58;4.50;99.90
6841;DHT22;3458;53.678;14.080;2024-02-28T11:46:24;4.50;99.90
6841;DHT22;3458;53.678;14.080;2024-02-28T11:48:50;4.50;99.90
6841;DHT22;3458;53.678;14.080;2024-02-28T11:51:15;4.40;99.90
6841;DHT22;3458;53.678;14.080;2024-02-28T11:53:41;4.40;99.90
6841;DHT22;3458;53.678;14.080;2024-02-28T11:56:07;4.40;99.90
6841;DHT22;3458;53.678;14.080;2024-02-28T11:58:33;4.40;99.90
6841;DHT22;3458;53.678;14.080;2024-02-28T12:00:59;4.40;99.90
6841;DHT22;3458;53.678;14.080;2024-02-28T12:03:25;4.40;99.90
6841;DHT22;3458;53.678;14.080;2024-02-28T12:05:55;4.40;99.90
6841;DHT22;3458;53.678;14.080;2024-02-28T12:08:20;4.40;99.90
6841;DHT22;3458;53.678;14.080;2024-02-28T12:10:47;4.40;99.90
6841;DHT22;3458;53.678;14.080;2024-02-28T12:13:18;4.40;99.90
6841;DHT22;3458;53.678;14.080;2024-02-28T12:15:45;4.30;99.90
6841;DHT22;3458;53.678;14.080;2024-02-28T12:18:11;4.30;99.90
6841;DHT22;3458;53.678;14.080;2024-02-28T12:20:37;4.20;99.90
6841;DHT22;3458;53.678;14.080;2024-02-28T12:23:04;4.00;99.90
6841;DHT22;3458;53.678;14.080;2024-02-28T12:25:29;4.00;99.90
6841;DHT22;3458;53.678;14.080;2024-02-28T12:27:55;4.00;99.90
6841;DHT22;3458;53.678;14.080;2024-02-28T12:30:20;4.00;99.90
6841;DHT22;3458;53.678;14.080;2024-02-28T12:32:46;4.00;99.90
6841;DHT22;3458;53.678;14.080;2024-02-28T12:35:11;4.00;99.90
6841;DHT22;3458;53.678;14.080;2024-02-28T12:37:37;4.00;99.90
6841;DHT22;3458;53.678;14.080;2024-02-28T12:40:04;4.00;99.90
6841;DHT22;3458;53.678;14.080;2024-02-28T12:42:31;4.00;99.90
6841;DHT22;3458;53.678;14.080;2024-02-28T12:44:57;4.00;99.90
6841;DHT22;3458;53.678;14.080;2024-02-28T12:47:22;4.20;99.90
6841;DHT22;3458;53.678;14.080;2024-02-28T12:49:48;4.10;99.90
6841;DHT22;3458;53.678;14.080;2024-02-28T12:52:13;4.10;99.90
6841;DHT22;3458;53.678;14.080;2024-02-28T12:54:39;4.10;99.90
6841;DHT22;3458;53.678;14.080;2024-02-28T12:57:04;4.00;99.90
6841;DHT22;3458;53.678;14.080;2024-02-28T12:59:31;4.00;99.90
6841;DHT22;3458;53.678;14.080;2024-02-28T13:01:58;3.90;99.90
6841;DHT22;3458;53.678;14.080;2024-02-28T13:04:24;3.90;99.90
6841;DHT22;3458;53.678;14.080;2024-02-28T13:06:51;3.80;99.90
6841;DHT22;3458;53.678;14.080;2024-02-28T13:09:18;3.90;99.90
6841;DHT22;3458;53.678;14.080;2024-02-28T13:11:44;3.90;99.90
6841;DHT22;3458;53.678;14.080;2024-02-28T13:14:09;3.90;99.90
6841;DHT22;3458;53.678;14.080;2024-02-28T13:16:35;4.00;99.90
6841;DHT22;3458;53.678;14.080;2024-02-28T13:19:01;3.90;99.90
6841;DHT22;3458;53.678;14.080;2024-02-28T13:21:27;3.90;99.90
6841;DHT22;3458;53.678;14.080;2024-02-28T13:23:53;4.00;99.90
6841;DHT22;3458;53.678;14.080;2024-02-28T13:26:18;4.00;99.90
6841;DHT22;3458;53.678;14.080;2024-02-28T13:28:44;4.10;99.90
6841;DHT22;3458;53.678;14.080;2024-02-28T13:31:10;4.10;99.90
6841;DHT22;3458;53.678;14.080;2024-02-28T13:33:36;4.10;99.90
6841;DHT22;3458;53.678;14.080;2024-02-28T13:36:03;4.10;99.90
6841;DHT22;3458;53.678;14.080;2024-02-28T13:38:28;4.20;99.90
6841;DHT22;3458;53.678;14.080;2024-02-28T13:40:54;4.20;99.90
6841;DHT22;3458;53.678;14.080;2024-02-28T13:43:20;4.20;99.90
6841;DHT22;3458;53.678;14.080;2024-02-28T13:45:49;4.20;99.90
6841;DHT22;3458;53.678;14.080;2024-02-28T13:48:21;4.20;99.90
6841;DHT22;3458;53.678;14.080;2024-02-28T13:50:47;4.20;99.90
6841;DHT22;3458;53.678;14.080;2024-02-28T13:53:14;4.00;99.90
6841;DHT22;3458;53.678;14.080;2024-02-28T13:55:44;4.00;99.90
6841;DHT22;3458;53.678;14.080;2024-02-28T13:58:11;4.00;99.90
6841;DHT22;3458;53.678;14.080;2024-02-28T14:00:37;4.10;99.90
6841;DHT22;3458;53.678;14.080;2024-02-28T14:03:04;4.20;99.90
6841;DHT22;3458;53.678;14.080;2024-02-28T14:05:29;4.10;99.90
6841;DHT22;3458;53.678;14.080;2024-02-28T14:07:56;4.20;99.90
6841;DHT22;3458;53.678;14.080;2024-02-28T14:10:23;4.20;99.90
6841;DHT22;3458;53.678;14.080;2024-02-28T14:12:48;4.20;99.90
6841;DHT22;3458;53.678;14.080;2024-02-28T14:15:14;4.30;99.90
6841;DHT22;3458;53.678;14.080;2024-02-28T14:17:40;4.30;99.90
6841;DHT22;3458;53.678;14.080;2024-02-28T14:20:09;4.20;99.90
6841;DHT22;3458;53.678;14.080;2024-02-28T14:22:34;4.20;99.90
6841;DHT22;3458;53.678;14.080;2024-02-28T14:25:00;4.30;99.90
6841;DHT22;3458;53.678;14.080;2024-02-28T14:27:26;4.30;99.90
6841;DHT22;3458;53.678;14.080;2024-02-28T14:29:55;4.30;99.90
6841;DHT22;3458;53.678;14.080;2024-02-28T14:32:21;4.40;99.90
6841;DHT22;3458;53.678;14.080;2024-02-28T14:34:47;4.40;99.90
6841;DHT22;3458;53.678;14.080;2024-02-28T14:37:14;4.40;99.90
6841;DHT22;3458;53.678;14.080;2024-02-28T14:39:40;4.50;99.90
6841;DHT22;3458;53.678;14.080;2024-02-28T14:42:06;4.60;99.90
6841;DHT22;3458;53.678;14.080;2024-02-28T14:44:36;4.60;99.90
6841;DHT22;3458;53.678;14.080;2024-02-28T14:47:02;4.50;99.90
6841;DHT22;3458;53.678;14.080;2024-02-28T14:49:27;4.50;99.90
6841;DHT22;3458;53.678;14.080;2024-02-28T14:51:53;4.50;99.90
6841;DHT22;3458;53.678;14.080;2024-02-28T14:54:18;4.50;99.90
6841;DHT22;3458;53.678;14.080;2024-02-28T14:56:48;4.50;99.90
6841;DHT22;3458;53.678;14.080;2024-02-28T14:59:14;4.50;99.90
6841;DHT22;3458;53.678;14.080;2024-02-28T15:01:39;4.50;99.90
6841;DHT22;3458;53.678;14.080;2024-02-28T15:04:05;4.50;99.90
6841;DHT22;3458;53.678;14.080;2024-02-28T15:06:30;4.50;99.90
6841;DHT22;3458;53.678;14.080;2024-02-28T15:08:56;4.50;99.90
6841;DHT22;3458;53.678;14.080;2024-02-28T15:11:22;4.50;99.90
6841;DHT22;3458;53.678;14.080;2024-02-28T15:13:48;4.50;99.90
6841;DHT22;3458;53.678;14.080;2024-02-28T15:16:13;4.50;99.90
6841;DHT22;3458;53.678;14.080;2024-02-28T15:18:39;4.50;99.90
6841;DHT22;3458;53.678;14.080;2024-02-28T15:21:04;4.50;99.90
6841;DHT22;3458;53.678;14.080;2024-02-28T15:23:30;4.60;99.90
6841;DHT22;3458;53.678;14.080;2024-02-28T15:25:56;4.50;99.90
6841;DHT22;3458;53.678;14.080;2024-02-28T15:28:21;4.50;99.90
6841;DHT22;3458;53.678;14.080;2024-02-28T15:30:49;4.60;99.90
6841;DHT22;3458;53.678;14.080;2024-02-28T15:33:14;4.50;99.90
6841;DHT22;3458;53.678;14.080;2024-02-28T15:35:40;4.50;99.90
6841;DHT22;3458;53.678;14.080;2024-02-28T15:38:05;4.50;99.90
6841;DHT22;3458;53.678;14.080;2024-02-28T15:40:31;4.50;99.90
6841;DHT22;3458;53.678;14.080;2024-02-28T15:42:57;4.60;99.90
6841;DHT22;3458;53.678;14.080;2024-02-28T15:45:25;4.60;99.90
6841;DHT22;3458;53.678;14.080;2024-02-28T15:47:51;4.60;99.90
6841;DHT22;3458;53.678;14.080;2024-02-28T15:50:17;4.60;99.90
6841;DHT22;3458;53.678;14.080;2024-02-28T15:52:43;4.60;99.90
6841;DHT22;3458;53.678;14.080;2024-02-28T15:55:10;4.60;99.90